Terminal Aerodrome Forecast
Issued by NWS

Home | Current Version | Previous Version | Text Only | Print | Product List | Glossary On
Versions: 1 2 3 4 5 6 7 8 9 10 11 12 13
000
FTUS46 KMTR 291130
TAFOAK
TAF
KOAK 291130Z 2912/3018 06004KT P6SM FEW200
     FM291700 28009KT P6SM FEW200
     FM292100 28014G19KT P6SM FEW020 SCT150
     FM300400 28010KT P6SM FEW010 SCT012 BKN150
     FM301000 26007KT 6SM -DZ BR BKN008 OVC010
     FM301500 29010KT P6SM SCT012 SCT150=

USA.gov is the U.S. government's official web portal to all federal, state and local government web resources and services.